Blue Dome, Idaho
Current Conditions -  °F | °C
As of 7:48 AM on Saturday 25 Oct 2014 (Local Time) from KLLJ Reporting Station
Haze Haze  
Wind Chill: 31°   Ceiling: Unl
Heat Index: 31°   Visibility: 2mi
Dew Point: 30°   Wind: 0mph
Humidity: 96%   Direction: NA
Pressure: 30.02"   Gusts: NA
Location:  44.5987°N, 113.355°W
Report Text: KLLJ 251348Z AUTO 00000KT 2SM BR FEW001 M01/M01 A3002 RMK AO2 T10061011
Loading
Personal Weather Stations






























Interactive Weather Map
Tropical Storm Tracking
New forecast layout! Learn more

10-Day Weather Forecast

Advertisements
Track Severe Weather on mobile